Main page
METAR-TAF:

METAR-TAF

Airports :

Palma de Mallorca Airport

Palma de Mallorca, Spain

latitude: 39-33N, longitude: 002-44E, elevation: 4 m

Current weather observation

The report was made 46 minutes ago, at 03:00 UTC
Wind 3 kt from the Northeast
Temperature 6°C
Humidity 93%
Pressure 1016 hPa
Visibility 10 km or more
no clouds below 1500 m and no cumulonimbus

METAR: LEPA 200300Z 05003KT CAVOK 06/05 Q1016 NOSIG

Time: 05:46 (03:46 UTC)

Forecast

The report was made 4 hours and 46 minutes ago, at 23:00 UTC
Forecast valid from 20 at 00 UTC to 20 at 24 UTC
Wind 3 kt from the Northeast
Visibility 10 km or more
no clouds below 1500 m and no cumulonimbus
Becoming
from 20 at 09 UTC to 20 at 12 UTC
Wind 8 kt from the South/Southwest
Becoming
from 20 at 15 UTC to 20 at 17 UTC
Wind 10 kt from the Northeast
Becoming
from 20 at 19 UTC to 20 at 21 UTC
Wind 4 kt from variable directions

TAF: LEPA 192300Z 2000/2024 04003KT CAVOK TX21/2013Z TN07/2006Z BECMG 2009/2012 21008KT BECMG 2015/2017 04010KT BECMG 2019/2021 VRB04KT

Weather observations and forecasts of more than 4000 airports (METAR and TAF reports).

The available stations are represented by yellow and red dots on the map.

Hover mouse over dot to see the name of the station.

Then click to see weather observations and forecasts.

To change the map : click on the green buttons with a black cross to zoom in, on the green button with a dash to zoom out, or on the green arrows for adjacent maps.


METAR-TAF: